Terminal Aerodrome Forecast
Issued by NWS Central Illinois

Home | Current Version | Previous Version | Text Only | Print | Product List | Glossary On
Versions: 1 2 3 4 5 6 7 8 9 10 11 12 13 14 15 16 17 18 19 20 21
000
FTUS43 KILX 281745
TAFPIA
TAF
KPIA 281745Z 2818/2918 17006KT P6SM VCSH SCT025
     FM290300 19005KT P6SM VCSH SCT035 BKN120
     FM291000 19007KT P6SM VCTS SCT035CB BKN120
     FM291300 34007KT P6SM VCTS SCT035CB BKN120=

USA.gov is the U.S. government's official web portal to all federal, state and local government web resources and services.